Time;durP1;ratioP1;P1;durP2;ratioP2;P2;SDS_P1;SDS_P2;PMS_P1;PMS_P2;Temp;Humidity;BMP_temperature;BMP_pressure;BME280_temperature;BME280_humidity;BME280_pressure;Samples;Min_cycle;Max_cycle;Signal;HPM_P1;HPM_P2
2022/08/25 00:01:42;;;;;;;8.05;3.20;;;17.90;99.90;;;;;;4851384;29;20041;-93
2022/08/25 00:04:52;;;;;;;5.55;2.70;;;17.90;99.90;;;;;;4829934;29;20549;-92
2022/08/25 00:08:59;;;;;;;;;;;;;;;;;;;;;
2022/08/25 00:15:16;;;;;;;;;;;;;;;;;;;;;
2022/08/25 00:24:59;;;;;;;3.97;2.70;;;17.70;99.90;;;;;;4788344;30;20116;-92
2022/08/25 00:27:57;;;;;;;3.33;2.90;;;17.60;99.90;;;;;;4790680;30;20500;-93
2022/08/25 00:30:25;;;;;;;6.70;3.42;;;17.60;99.90;;;;;;4775482;30;20126;-93
2022/08/25 00:36:17;;;;;;;;;;;;;;;;;;;;;
2022/08/25 00:42:02;;;;;;;6.20;3.83;;;17.50;99.90;;;;;;4755249;30;20536;-92
2022/08/25 00:44:37;;;;;;;4.85;3.10;;;17.50;99.90;;;;;;4753980;30;20040;-92
2022/08/25 00:47:05;;;;;;;7.68;3.70;;;17.50;99.90;;;;;;4746197;30;20041;-91
2022/08/25 00:49:53;;;;;;;4.25;3.17;;;17.50;99.90;;;;;;4733281;30;20111;-92
2022/08/25 00:52:21;;;;;;;6.32;3.00;;;17.40;99.90;;;;;;4767530;30;20083;-92
2022/08/25 00:54:53;;;;;;;7.55;2.92;;;17.40;99.90;;;;;;4770195;30;20059;-91
2022/08/25 00:57:42;;;;;;;3.75;2.95;;;17.40;99.90;;;;;;4770533;30;20164;-94
2022/08/25 01:00:20;;;;;;;6.95;3.22;;;17.40;99.90;;;;;;4770760;30;20040;-93
2022/08/25 01:02:49;;;;;;;8.18;3.35;;;17.40;99.90;;;;;;4770328;30;20118;-93
2022/08/25 01:05:20;;;;;;;6.03;3.28;;;17.40;99.90;;;;;;4770125;30;20040;-93
2022/08/25 01:07:52;;;;;;;;;;;17.30;99.90;;;;;;4770582;30;20057;-91
2022/08/25 01:10:20;;;;;;;9.73;3.30;;;17.30;99.90;;;;;;4755373;30;19937;-93
2022/08/25 01:12:47;;;;;;;7.60;2.90;;;17.20;99.90;;;;;;4768619;30;20036;-92
2022/08/25 01:15:14;;;;;;;6.53;3.70;;;17.20;99.90;;;;;;4770018;30;20589;-92
2022/08/25 01:17:57;;;;;;;3.53;3.20;;;17.20;99.90;;;;;;4766292;29;20129;-92
2022/08/25 01:20:35;;;;;;;10.73;4.00;;;17.20;99.90;;;;;;4828331;29;20037;-93
2022/08/25 01:23:01;;;;;;;4.53;3.40;;;17.20;99.90;;;;;;4828562;29;20040;-92
2022/08/25 01:25:36;;;;;;;6.85;3.80;;;17.20;99.90;;;;;;4827948;29;20465;-94
2022/08/25 01:28:03;;;;;;;9.18;4.25;;;17.20;99.90;;;;;;4828554;29;20493;-93
2022/08/25 01:30:32;;;;;;;7.30;4.00;;;17.20;99.90;;;;;;4843696;29;20431;-92
2022/08/25 01:32:58;;;;;;;9.65;4.53;;;17.10;99.90;;;;;;4843296;29;20022;-94
2022/08/25 01:35:29;;;;;;;9.77;4.90;;;17.20;99.90;;;;;;4827835;29;20140;-93
2022/08/25 01:37:59;;;;;;;11.27;4.70;;;17.10;99.90;;;;;;4827769;29;20060;-95
2022/08/25 01:40:38;;;;;;;13.00;4.78;;;17.10;99.90;;;;;;4840098;29;20545;-93
2022/08/25 01:43:12;;;;;;;7.38;4.50;;;17.10;99.90;;;;;;4838407;29;20476;-93
2022/08/25 01:45:47;;;;;;;10.32;4.35;;;17.10;99.90;;;;;;4827870;29;20050;-94
2022/08/25 01:48:25;;;;;;;;;;;;;;;;;;;;;
2022/08/25 01:50:56;;;;;;;10.93;3.88;;;17.10;99.90;;;;;;4827733;29;20053;-93
2022/08/25 01:53:29;;;;;;;7.03;4.40;;;17.10;99.90;;;;;;4842972;29;20046;-91
2022/08/25 01:56:10;;;;;;;11.25;3.65;;;17.10;99.90;;;;;;4827336;29;20507;-93
2022/08/25 01:58:48;;;;;;;5.50;3.45;;;17.10;99.90;;;;;;4844801;29;20054;-92
2022/08/25 02:01:23;;;;;;;6.15;3.33;;;17.00;99.90;;;;;;4855242;29;20026;-91
2022/08/25 02:03:55;;;;;;;3.58;2.70;;;17.00;99.90;;;;;;4844000;29;20026;-94
2022/08/25 02:06:31;;;;;;;4.97;2.97;;;17.00;99.90;;;;;;4842413;29;20038;-91
2022/08/25 02:09:13;;;;;;;4.45;3.28;;;17.00;99.90;;;;;;4827429;29;20041;-93
2022/08/25 02:11:54;;;;;;;5.82;2.75;;;16.90;99.90;;;;;;4842274;29;20074;-94
2022/08/25 02:14:34;;;;;;;5.55;3.17;;;16.90;99.90;;;;;;4842290;29;20047;-91
2022/08/25 02:17:04;;;;;;;7.30;2.67;;;16.90;99.90;;;;;;4827067;29;20042;-92
2022/08/25 02:19:32;;;;;;;4.10;2.70;;;16.90;99.90;;;;;;4843420;29;20566;-94
2022/08/25 02:22:04;;;;;;;6.35;3.03;;;16.90;99.90;;;;;;4846360;29;20030;-93
2022/08/25 02:24:30;;;;;;;8.23;3.05;;;16.90;99.90;;;;;;4845891;29;20030;-92
2022/08/25 02:27:03;;;;;;;6.70;2.90;;;16.90;99.90;;;;;;4830168;29;20039;-90
2022/08/25 02:29:32;;;;;;;3.55;2.22;;;16.90;99.90;;;;;;4838266;29;20030;-92
2022/08/25 02:32:02;;;;;;;4.28;2.28;;;16.90;99.90;;;;;;4829822;29;20053;-93
2022/08/25 02:34:32;;;;;;;3.28;2.03;;;16.90;99.90;;;;;;4830665;29;20034;-93
2022/08/25 02:37:06;;;;;;;4.93;1.92;;;16.90;99.90;;;;;;4846097;29;20046;-93
2022/08/25 02:39:32;;;;;;;5.80;2.00;;;16.90;99.90;;;;;;4823332;29;20025;-92
2022/08/25 02:41:58;;;;;;;6.20;2.20;;;16.80;99.90;;;;;;4845072;29;20052;-92
2022/08/25 02:44:27;;;;;;;8.80;2.20;;;16.80;99.90;;;;;;4845398;29;20447;-93
2022/08/25 02:46:58;;;;;;;5.43;2.03;;;16.80;99.90;;;;;;4845330;29;20034;-92
2022/08/25 02:49:24;;;;;;;5.32;2.25;;;16.80;99.90;;;;;;4844925;29;20034;-92
2022/08/25 02:51:52;;;;;;;6.68;2.75;;;16.80;99.90;;;;;;4846049;29;20026;-92
2022/08/25 02:54:18;;;;;;;4.18;2.22;;;16.80;99.90;;;;;;4845378;29;20050;-93
2022/08/25 02:56:49;;;;;;;3.08;2.63;;;16.80;99.90;;;;;;4830653;29;20029;-94
2022/08/25 02:59:19;;;;;;;5.40;2.47;;;16.80;99.90;;;;;;4848086;29;20026;-91
2022/08/25 03:01:48;;;;;;;8.82;2.42;;;16.80;99.90;;;;;;4839407;29;20038;-93
2022/08/25 03:04:15;;;;;;;5.32;2.25;;;16.80;99.90;;;;;;4833154;29;20030;-92
2022/08/25 03:06:44;;;;;;;4.97;2.08;;;16.80;99.90;;;;;;4845433;29;20097;-92
2022/08/25 03:09:11;;;;;;;4.85;2.00;;;16.80;99.90;;;;;;4829366;29;20065;-91
2022/08/25 03:11:37;;;;;;;5.80;2.15;;;16.80;99.90;;;;;;4814899;29;20034;-93
2022/08/25 03:14:04;;;;;;;6.05;2.20;;;16.70;99.90;;;;;;4830196;29;20052;-94
2022/08/25 03:16:31;;;;;;;6.55;2.30;;;16.70;99.90;;;;;;4845261;29;20038;-91
2022/08/25 03:19:00;;;;;;;5.97;2.10;;;16.70;99.90;;;;;;4829736;29;20171;-93
2022/08/25 03:21:28;;;;;;;4.75;1.70;;;16.70;99.90;;;;;;4830203;29;20033;-92
2022/08/25 03:23:57;;;;;;;7.82;1.35;;;16.70;99.90;;;;;;4844915;29;20037;-93
2022/08/25 03:29:10;;;;;;;7.93;2.00;;;16.60;99.90;;;;;;4833001;29;20045;-92
2022/08/25 03:31:37;;;;;;;2.13;1.55;;;16.60;99.90;;;;;;4843999;29;20022;-92
2022/08/25 03:34:08;;;;;;;2.50;1.42;;;16.60;99.90;;;;;;4814361;29;20050;-93
2022/08/25 03:36:33;;;;;;;4.00;1.30;;;16.60;99.90;;;;;;4829753;29;20125;-93
2022/08/25 03:39:02;;;;;;;7.22;1.90;;;16.50;99.90;;;;;;4830208;29;20073;-92
2022/08/25 03:41:31;;;;;;;3.92;1.33;;;16.50;99.90;;;;;;4847112;29;20093;-94
2022/08/25 03:44:01;;;;;;;1.40;1.30;;;16.50;99.90;;;;;;4841842;29;20033;-93
2022/08/25 03:46:41;;;;;;;3.85;1.40;;;16.50;99.90;;;;;;4847061;29;20528;-91
2022/08/25 03:49:13;;;;;;;2.67;1.38;;;16.50;99.90;;;;;;4848531;29;20030;-94
2022/08/25 03:51:47;;;;;;;2.88;1.75;;;16.50;99.90;;;;;;4850548;29;20098;-94
2022/08/25 03:54:20;;;;;;;4.72;1.20;;;16.50;99.90;;;;;;4832773;29;20050;-92
2022/08/25 03:56:45;;;;;;;2.03;1.40;;;16.40;99.90;;;;;;4845657;29;20085;-95
2022/08/25 03:59:13;;;;;;;2.88;1.02;;;16.50;99.90;;;;;;4830677;29;20038;-93
2022/08/25 04:01:45;;;;;;;3.63;1.20;;;16.40;99.90;;;;;;4834631;29;20057;-92
2022/08/25 04:04:14;;;;;;;9.20;1.48;;;16.40;99.90;;;;;;4846308;29;20034;-93
2022/08/25 04:06:42;;;;;;;5.50;1.50;;;16.40;99.90;;;;;;4829383;29;20067;-92
2022/08/25 04:09:09;;;;;;;2.22;1.08;;;16.40;99.90;;;;;;4829475;29;20030;-92
2022/08/25 04:11:36;;;;;;;4.18;2.03;;;16.30;99.90;;;;;;4810858;29;20080;-92
2022/08/25 04:14:09;;;;;;;2.42;1.33;;;16.30;99.90;;;;;;4825557;29;20050;-93
2022/08/25 04:16:35;;;;;;;2.08;1.20;;;16.30;99.90;;;;;;4829009;29;20406;-93
2022/08/25 04:19:04;;;;;;;5.53;1.25;;;16.30;99.90;;;;;;4844201;29;20061;-92
2022/08/25 04:21:31;;;;;;;2.58;1.38;;;16.30;99.90;;;;;;4829151;29;20410;-91
2022/08/25 04:23:59;;;;;;;2.92;1.30;;;16.30;99.90;;;;;;4828833;29;20082;-92
2022/08/25 04:26:31;;;;;;;1.95;1.20;;;16.30;99.90;;;;;;4828691;29;20033;-91
2022/08/25 04:28:59;;;;;;;2.33;1.20;;;16.30;99.90;;;;;;4844404;29;20030;-93
2022/08/25 04:31:27;;;;;;;1.30;1.20;;;16.30;99.90;;;;;;4828739;29;20030;-92
2022/08/25 04:33:53;;;;;;;3.75;1.70;;;16.30;99.90;;;;;;4843816;29;20036;-92
2022/08/25 04:36:19;;;;;;;3.65;1.20;;;16.30;99.90;;;;;;4828377;29;20060;-93
2022/08/25 04:38:49;;;;;;;3.97;1.35;;;16.30;99.90;;;;;;4828836;29;20116;-92
2022/08/25 04:41:21;;;;;;;4.43;1.40;;;16.30;99.90;;;;;;4843719;29;20051;-92
2022/08/25 04:43:54;;;;;;;3.90;1.42;;;16.30;99.90;;;;;;4845267;29;20037;-93
2022/08/25 04:46:36;;;;;;;3.00;1.50;;;16.30;99.90;;;;;;4828688;29;20126;-94
2022/08/25 04:49:10;;;;;;;3.25;1.40;;;16.30;99.90;;;;;;4829156;29;20449;-93
2022/08/25 04:51:39;;;;;;;7.18;1.80;;;16.20;99.90;;;;;;4828394;29;20034;-92
2022/08/25 04:54:28;;;;;;;2.67;1.33;;;16.20;99.90;;;;;;4834917;29;20450;-93
2022/08/25 04:57:12;;;;;;;4.40;1.70;;;16.20;99.90;;;;;;4857552;29;20058;-93
2022/08/25 04:59:51;;;;;;;1.98;1.50;;;16.20;99.90;;;;;;4848618;29;20046;-91
2022/08/25 05:02:20;;;;;;;2.22;1.52;;;16.10;99.90;;;;;;4841969;29;20068;-93
2022/08/25 05:04:55;;;;;;;6.30;1.70;;;16.10;99.90;;;;;;4855249;29;20045;-94
2022/08/25 05:07:29;;;;;;;4.75;1.50;;;16.00;99.90;;;;;;4836839;29;20030;-92
2022/08/25 05:10:04;;;;;;;2.47;1.63;;;16.00;99.90;;;;;;4834714;29;20042;-92
2022/08/25 05:12:37;;;;;;;4.80;1.45;;;16.00;99.90;;;;;;4834315;29;20034;-91
2022/08/25 05:15:53;;;;;;;5.22;1.60;;;15.90;99.90;;;;;;4848033;29;20531;-91
2022/08/25 05:18:27;;;;;;;3.47;1.67;;;15.90;99.90;;;;;;4835150;29;20045;-94
2022/08/25 05:21:07;;;;;;;3.38;1.42;;;15.90;99.90;;;;;;4833262;29;20026;-92
2022/08/25 05:23:37;;;;;;;1.97;1.30;;;15.90;99.90;;;;;;4831540;29;20449;-92
2022/08/25 05:26:09;;;;;;;1.92;1.40;;;15.80;99.90;;;;;;4831179;29;20762;-90
2022/08/25 05:28:55;;;;;;;3.13;1.60;;;15.80;99.90;;;;;;4830776;29;20536;-94
2022/08/25 05:31:50;;;;;;;;;;;;;;;;;;;;;
2022/08/25 05:34:37;;;;;;;3.03;2.00;;;15.80;99.90;;;;;;4843317;29;20109;-93
2022/08/25 05:38:03;;;;;;;2.92;1.40;;;15.80;99.90;;;;;;4828948;29;20046;-90
2022/08/25 05:40:55;;;;;;;2.58;1.98;;;15.80;99.90;;;;;;4828739;29;20034;-91
2022/08/25 05:54:56;;;;;;;1.95;1.52;;;15.90;99.90;;;;;;4615345;31;20077;-94
2022/08/25 05:57:49;;;;;;;5.03;1.67;;;15.90;99.90;;;;;;4601040;31;20063;-93
2022/08/25 06:03:56;;;;;;;4.32;1.40;;;15.90;99.90;;;;;;4602755;31;20087;-92
2022/08/25 06:06:31;;;;;;;7.22;1.70;;;15.80;99.90;;;;;;4594080;31;20044;-92
2022/08/25 06:09:54;;;;;;;2.05;1.33;;;15.80;99.90;;;;;;4588430;31;20051;-91
2022/08/25 06:12:49;;;;;;;4.00;1.38;;;15.80;99.90;;;;;;4589163;31;20078;-90
2022/08/25 06:15:21;;;;;;;2.70;1.50;;;15.80;99.90;;;;;;4586749;31;20044;-93
2022/08/25 06:17:52;;;;;;;4.72;1.35;;;15.80;99.90;;;;;;4603250;31;20052;-92
2022/08/25 06:20:39;;;;;;;1.65;1.30;;;15.80;99.90;;;;;;4604371;31;20055;-90
2022/08/25 06:23:17;;;;;;;3.15;1.50;;;15.80;99.90;;;;;;4600182;31;20068;-93
2022/08/25 06:28:55;;;;;;;3.05;1.63;;;15.80;99.90;;;;;;4673832;30;20041;-93
2022/08/25 06:31:24;;;;;;;1.85;1.25;;;15.80;99.90;;;;;;4800632;29;20141;-92
2022/08/25 06:33:52;;;;;;;2.15;1.40;;;15.80;99.90;;;;;;4827484;29;20501;-93
2022/08/25 06:39:37;;;;;;;1.70;1.50;;;15.80;99.90;;;;;;4816679;29;20036;-93
2022/08/25 06:42:48;;;;;;;4.32;1.38;;;15.80;99.90;;;;;;4812447;29;20288;-94
2022/08/25 06:48:49;;;;;;;3.22;1.20;;;15.90;99.90;;;;;;4829645;29;20135;-93
2022/08/25 06:51:22;;;;;;;4.93;1.60;;;15.90;99.90;;;;;;4829217;29;20048;-92
2022/08/25 06:57:38;;;;;;;3.22;1.60;;;15.90;99.90;;;;;;4851412;29;20052;-93
2022/08/25 07:00:29;;;;;;;3.63;1.23;;;15.90;99.90;;;;;;4829906;29;20038;-93
2022/08/25 07:03:18;;;;;;;2.25;1.23;;;15.90;99.90;;;;;;4827199;29;20038;-91
2022/08/25 07:06:45;;;;;;;;;;;;;;;;;;;;;
2022/08/25 07:09:25;;;;;;;2.78;1.48;;;16.00;99.90;;;;;;4822979;29;20384;-93
2022/08/25 07:12:15;;;;;;;3.78;1.45;;;16.00;99.90;;;;;;4811163;29;20043;-94
2022/08/25 07:15:01;;;;;;;4.40;1.42;;;16.00;99.90;;;;;;4807580;29;20061;-94
2022/08/25 07:17:33;;;;;;;2.45;1.10;;;16.00;99.90;;;;;;4812523;29;20087;-92
2022/08/25 07:20:30;;;;;;;2.05;1.20;;;16.10;99.90;;;;;;4812254;29;20461;-93
2022/08/25 07:23:11;;;;;;;3.33;1.25;;;16.10;99.90;;;;;;4828512;29;20034;-94
2022/08/25 07:25:39;;;;;;;4.15;1.35;;;16.20;99.90;;;;;;4812157;29;20034;-92
2022/08/25 07:28:11;;;;;;;2.92;1.40;;;16.20;99.90;;;;;;4811778;29;20058;-93
2022/08/25 07:30:46;;;;;;;1.90;1.30;;;16.20;99.90;;;;;;4811606;29;20038;-91
2022/08/25 07:33:15;;;;;;;2.97;1.42;;;16.30;99.90;;;;;;4812064;29;20037;-91
2022/08/25 07:35:53;;;;;;;4.30;1.55;;;16.30;99.90;;;;;;4796898;29;20046;-91
2022/08/25 07:38:45;;;;;;;3.92;1.45;;;16.30;99.90;;;;;;4811482;29;20038;-93
2022/08/25 07:41:12;;;;;;;5.75;1.60;;;16.40;99.90;;;;;;4805586;29;20284;-93
2022/08/25 07:43:38;;;;;;;2.42;1.48;;;16.40;99.90;;;;;;4812308;29;20026;-92
2022/08/25 07:46:06;;;;;;;2.60;1.48;;;16.40;99.90;;;;;;4814249;29;20027;-94
2022/08/25 07:48:39;;;;;;;2.53;1.33;;;16.40;99.90;;;;;;4811977;29;20033;-92
2022/08/25 07:51:13;;;;;;;3.75;1.50;;;16.40;99.90;;;;;;4814228;29;20050;-90
2022/08/25 07:53:58;;;;;;;3.80;1.30;;;16.40;99.90;;;;;;4815491;29;20027;-92
2022/08/25 07:56:29;;;;;;;3.65;1.23;;;16.40;99.90;;;;;;4852599;29;20060;-92
2022/08/25 07:59:01;;;;;;;2.70;1.88;;;16.50;99.90;;;;;;4858885;29;20034;-90
2022/08/25 08:01:36;;;;;;;2.20;1.40;;;16.40;99.90;;;;;;4859125;29;20030;-91
2022/08/25 08:04:11;;;;;;;6.80;1.52;;;16.40;99.90;;;;;;4842556;29;20034;-93
2022/08/25 08:06:42;;;;;;;5.68;1.77;;;16.40;99.90;;;;;;4820925;29;20042;-93
2022/08/25 08:09:11;;;;;;;;;;;16.40;99.90;;;;;;4830129;29;20030;-91
2022/08/25 08:11:43;;;;;;;4.50;1.42;;;16.50;99.90;;;;;;4826879;29;20286;-91
2022/08/25 08:14:22;;;;;;;1.65;1.40;;;16.50;99.90;;;;;;4846041;29;20497;-93
2022/08/25 08:16:58;;;;;;;5.10;1.30;;;16.40;99.90;;;;;;4831571;29;20087;-92
2022/08/25 08:19:44;;;;;;;2.40;1.55;;;16.40;99.90;;;;;;4830486;29;20045;-93
2022/08/25 08:22:13;;;;;;;3.30;1.45;;;16.50;99.90;;;;;;4846802;29;20029;-92
2022/08/25 08:25:18;;;;;;;;;;;;;;;;;;;;;
2022/08/25 08:28:13;;;;;;;3.47;1.40;;;16.50;99.90;;;;;;4844153;29;20044;-92
2022/08/25 08:30:57;;;;;;;;;;;;;;;;;;;;;
2022/08/25 08:33:54;;;;;;;2.00;1.30;;;16.60;99.90;;;;;;4846566;29;20402;-92
2022/08/25 08:36:40;;;;;;;2.60;1.40;;;16.60;99.90;;;;;;4844094;29;20046;-92
2022/08/25 08:39:25;;;;;;;3.15;1.60;;;16.60;99.90;;;;;;4844745;29;20444;-92
2022/08/25 08:49:27;;;;;;;2.10;1.08;;;16.60;99.90;;;;;;4788444;30;20034;-92
2022/08/25 08:52:14;;;;;;;1.95;1.27;;;16.60;99.90;;;;;;4781858;30;20040;-92
2022/08/25 08:55:11;;;;;;;5.50;1.17;;;16.60;99.90;;;;;;4800251;29;20039;-93
2022/08/25 08:58:24;;;;;;;2.35;1.50;;;16.70;99.90;;;;;;4802327;29;20050;-93
2022/08/25 09:01:02;;;;;;;3.00;1.50;;;16.70;99.90;;;;;;4805451;29;20081;-91
2022/08/25 09:03:37;;;;;;;3.47;1.20;;;16.70;99.90;;;;;;4805987;29;20033;-92
2022/08/25 09:06:10;;;;;;;2.67;1.60;;;16.70;99.90;;;;;;4805971;29;20039;-91
2022/08/25 09:08:38;;;;;;;2.30;1.33;;;16.70;99.90;;;;;;4805481;29;20073;-93
2022/08/25 09:11:29;;;;;;;2.17;1.45;;;16.70;99.90;;;;;;4806062;29;20034;-92
2022/08/25 09:14:32;;;;;;;5.72;1.30;;;16.70;99.90;;;;;;4806163;29;20035;-93
2022/08/25 09:17:56;;;;;;;3.47;1.15;;;16.70;99.90;;;;;;4807502;29;20552;-92
2022/08/25 09:21:17;;;;;;;4.75;1.88;;;16.70;99.90;;;;;;4813170;29;20059;-92
2022/08/25 09:42:18;;;;;;;4.97;1.67;;;16.50;99.90;;;;;;4682946;30;20048;-92
2022/08/25 09:45:24;;;;;;;;;;;;;;;;;;;;;
2022/08/25 09:48:29;;;;;;;3.15;2.13;;;16.50;99.90;;;;;;4651525;30;20042;-91
2022/08/25 10:05:56;;;;;;;4.00;2.22;;;16.50;99.90;;;;;;4567565;31;20070;-92
2022/08/25 10:18:43;;;;;;;2.80;1.80;;;16.70;99.90;;;;;;4585400;31;20100;-93
2022/08/25 10:21:33;;;;;;;5.20;2.05;;;16.70;99.90;;;;;;4583851;31;20040;-93
2022/08/25 10:24:14;;;;;;;2.15;1.50;;;16.70;99.90;;;;;;4583779;31;20101;-94
2022/08/25 10:27:18;;;;;;;;;;;;;;;;;;;;;
2022/08/25 10:30:04;;;;;;;3.55;1.92;;;16.80;99.90;;;;;;4597577;31;20040;-93
2022/08/25 10:33:00;;;;;;;2.80;1.80;;;16.70;99.90;;;;;;4640453;30;20101;-90
2022/08/25 10:35:44;;;;;;;2.75;1.40;;;16.80;99.90;;;;;;4664408;30;20046;-94
2022/08/25 10:42:21;;;;;;;5.60;2.25;;;16.80;99.90;;;;;;4765891;30;20504;-93
2022/08/25 10:49:33;;;;;;;3.35;2.58;;;17.00;99.90;;;;;;4791128;30;20043;-93
2022/08/25 10:52:51;;;;;;;6.78;2.00;;;17.10;99.90;;;;;;4799279;29;20045;-93
2022/08/25 10:56:01;;;;;;;2.40;1.83;;;17.00;99.90;;;;;;4845494;29;20045;-92
2022/08/25 10:59:11;;;;;;;6.13;2.20;;;17.10;99.90;;;;;;4828143;29;20042;-92
2022/08/25 11:02:26;;;;;;;4.25;2.20;;;17.00;99.90;;;;;;4844329;29;20384;-91
2022/08/25 11:05:56;;;;;;;;;;;;;;;;;;;;;
2022/08/25 11:09:10;;;;;;;;;;;;;;;;;;;;;
2022/08/25 11:11:58;;;;;;;4.10;2.00;;;17.10;99.90;;;;;;4836726;29;20045;-94
2022/08/25 11:14:36;;;;;;;4.60;1.88;;;17.20;99.90;;;;;;4829981;29;20117;-91
2022/08/25 11:17:38;;;;;;;2.65;1.70;;;17.20;99.90;;;;;;4826916;29;20046;-91
2022/08/25 11:20:27;;;;;;;5.53;1.85;;;17.30;99.90;;;;;;4829840;29;20074;-92
2022/08/25 11:23:18;;;;;;;5.97;1.30;;;17.30;99.90;;;;;;4845766;29;20030;-95
2022/08/25 11:26:09;;;;;;;;;;;;;;;;;;;;;
2022/08/25 11:28:52;;;;;;;2.58;0.93;;;17.30;99.90;;;;;;4845596;29;20030;-93
2022/08/25 11:31:20;;;;;;;5.05;1.02;;;17.40;99.90;;;;;;4844863;29;20494;-90
2022/08/25 11:33:47;;;;;;;1.77;1.00;;;17.40;99.90;;;;;;4830265;29;20050;-92
2022/08/25 11:39:54;;;;;;;3.53;1.20;;;17.50;99.90;;;;;;4848807;29;20460;-90
2022/08/25 11:43:06;;;;;;;2.70;0.90;;;17.60;99.90;;;;;;4844752;29;20049;-93
2022/08/25 11:46:06;;;;;;;4.03;1.00;;;17.60;99.90;;;;;;4829385;29;20040;-92
2022/08/25 11:48:54;;;;;;;4.10;1.30;;;17.70;99.90;;;;;;4829530;29;20050;-93
2022/08/25 11:51:53;;;;;;;3.97;1.30;;;17.70;99.90;;;;;;4826008;29;20030;-93
2022/08/25 11:57:28;;;;;;;6.28;1.20;;;17.70;99.90;;;;;;4844751;29;20058;-93
2022/08/25 12:00:12;;;;;;;3.97;1.80;;;17.70;99.90;;;;;;4847115;29;20065;-94
2022/08/25 12:02:50;;;;;;;1.83;1.10;;;17.70;99.90;;;;;;4846967;29;20099;-92
2022/08/25 12:05:22;;;;;;;5.13;1.30;;;17.70;99.90;;;;;;4838785;29;20042;-91
2022/08/25 12:11:15;;;;;;;6.53;1.50;;;17.60;99.90;;;;;;4866734;29;20037;-92
2022/08/25 12:13:51;;;;;;;5.97;1.80;;;17.60;99.90;;;;;;4843160;29;20037;-89
2022/08/25 12:16:42;;;;;;;6.22;1.58;;;17.60;99.90;;;;;;4849072;29;20048;-91
2022/08/25 12:19:41;;;;;;;6.75;2.10;;;17.50;99.90;;;;;;4831863;29;20125;-91
2022/08/25 12:22:07;;;;;;;2.42;1.63;;;17.50;99.90;;;;;;4831166;29;20102;-93
2022/08/25 12:24:45;;;;;;;3.42;1.50;;;17.50;99.90;;;;;;4830088;29;20034;-94
2022/08/25 12:27:41;;;;;;;4.88;1.77;;;17.50;99.90;;;;;;4829097;29;20042;-92
2022/08/25 12:30:44;;;;;;;6.00;1.60;;;17.40;99.90;;;;;;4830119;29;20062;-95
2022/08/25 12:33:32;;;;;;;7.82;1.67;;;17.40;99.90;;;;;;4844857;29;20126;-93
2022/08/25 12:36:05;;;;;;;4.80;1.40;;;17.50;99.90;;;;;;4828320;29;20042;-92
2022/08/25 12:38:51;;;;;;;6.20;1.48;;;17.50;99.90;;;;;;4829326;29;20022;-92
2022/08/25 12:41:23;;;;;;;3.78;1.35;;;17.60;99.90;;;;;;4829202;29;20034;-92
2022/08/25 12:44:09;;;;;;;3.53;1.40;;;17.70;99.90;;;;;;4829101;29;20125;-91
2022/08/25 12:46:38;;;;;;;5.10;1.35;;;17.70;99.90;;;;;;4829035;29;20041;-92
2022/08/25 12:49:11;;;;;;;8.80;1.57;;;17.70;99.90;;;;;;4829117;29;20041;-93
2022/08/25 12:51:59;;;;;;;4.95;1.40;;;17.80;99.90;;;;;;4830522;29;20094;-93
2022/08/25 12:54:43;;;;;;;8.63;1.35;;;17.90;99.90;;;;;;4828729;29;20049;-90
2022/08/25 12:57:43;;;;;;;3.20;1.75;;;18.00;99.90;;;;;;4828645;29;20141;-93
2022/08/25 13:00:40;;;;;;;5.15;1.55;;;18.00;99.90;;;;;;4838709;29;20084;-91
2022/08/25 13:03:54;;;;;;;12.15;1.55;;;18.10;99.90;;;;;;4847795;29;20064;-92
2022/08/25 13:06:50;;;;;;;;;;;;;;;;;;;;;
2022/08/25 13:09:42;;;;;;;8.18;1.60;;;18.20;99.90;;;;;;4846234;29;20560;-91
2022/08/25 13:15:38;;;;;;;5.05;1.38;;;18.40;99.90;;;;;;4846105;29;20030;-92
2022/08/25 13:18:27;;;;;;;7.35;1.42;;;18.50;99.90;;;;;;4831489;29;20497;-93
2022/08/25 13:21:26;;;;;;;3.83;1.63;;;18.50;99.90;;;;;;4846101;29;20033;-90
2022/08/25 13:24:13;;;;;;;5.95;1.92;;;18.60;99.90;;;;;;4844400;29;20046;-91
2022/08/25 13:26:43;;;;;;;4.22;1.88;;;18.70;99.90;;;;;;4828647;29;20033;-94
2022/08/25 13:29:17;;;;;;;6.10;1.80;;;18.80;99.90;;;;;;4843700;29;20034;-92
2022/08/25 13:31:56;;;;;;;3.75;1.30;;;18.80;99.90;;;;;;4843317;29;20033;-91
2022/08/25 13:34:34;;;;;;;5.43;1.33;;;18.80;99.90;;;;;;4843059;29;20057;-93
2022/08/25 13:37:26;;;;;;;6.03;1.35;;;18.90;99.90;;;;;;4827236;29;20570;-93
2022/08/25 13:40:19;;;;;;;7.72;1.40;;;18.90;99.90;;;;;;4843120;29;20084;-92
2022/08/25 13:42:49;;;;;;;8.40;1.52;;;19.00;99.90;;;;;;4829184;29;20037;-91
2022/08/25 13:45:25;;;;;;;4.97;1.38;;;19.10;99.90;;;;;;4831141;29;20058;-90
2022/08/25 13:47:56;;;;;;;2.63;1.00;;;19.10;99.90;;;;;;4844256;29;20057;-92
2022/08/25 13:50:27;;;;;;;7.50;1.33;;;19.20;99.90;;;;;;4842691;29;20067;-92
2022/08/25 13:53:02;;;;;;;7.70;1.45;;;19.40;99.90;;;;;;4827853;29;20483;-92
2022/08/25 13:55:49;;;;;;;5.00;0.93;;;19.60;99.60;;;;;;4842630;29;20054;-92
2022/08/25 13:58:21;;;;;;;6.70;1.25;;;19.80;99.30;;;;;;4832369;29;20551;-91
2022/08/25 14:01:08;;;;;;;4.05;1.20;;;19.90;97.90;;;;;;4846033;29;20054;-91
2022/08/25 14:03:40;;;;;;;6.50;1.13;;;20.10;97.30;;;;;;4827593;29;20026;-91
2022/08/25 14:06:27;;;;;;;23.40;8.10;;;20.60;96.90;;;;;;4827108;29;20030;-93
2022/08/25 14:09:07;;;;;;;5.55;1.35;;;21.30;95.10;;;;;;4826906;29;20037;-92
2022/08/25 14:11:42;;;;;;;1.85;0.90;;;21.80;92.70;;;;;;4827511;29;20029;-92
2022/08/25 14:14:15;;;;;;;3.42;1.00;;;22.20;90.60;;;;;;4834754;29;20030;-92
2022/08/25 14:17:01;;;;;;;4.72;1.45;;;22.50;87.20;;;;;;4829402;29;20038;-92
2022/08/25 14:19:28;;;;;;;5.40;1.20;;;22.60;83.60;;;;;;4851567;29;20042;-90
2022/08/25 14:21:57;;;;;;;2.38;1.02;;;22.50;81.60;;;;;;4849031;29;20037;-92
2022/08/25 14:24:25;;;;;;;3.55;0.70;;;22.40;80.60;;;;;;4831647;29;20065;-92
2022/08/25 14:26:53;;;;;;;3.47;0.80;;;22.30;80.00;;;;;;4846999;29;20094;-92
2022/08/25 14:29:19;;;;;;;5.28;1.08;;;22.30;79.70;;;;;;4830901;29;20034;-91
2022/08/25 14:31:45;;;;;;;4.25;1.00;;;22.40;78.80;;;;;;4830624;29;20082;-92
2022/08/25 14:34:27;;;;;;;6.97;0.88;;;22.60;78.50;;;;;;4845790;29;20037;-92
2022/08/25 14:37:00;;;;;;;3.05;1.00;;;22.70;77.30;;;;;;4845448;29;20198;-92
2022/08/25 14:39:28;;;;;;;3.67;0.80;;;23.10;76.30;;;;;;4830112;29;20078;-89
2022/08/25 14:41:54;;;;;;;5.68;1.95;;;23.30;75.40;;;;;;4845527;29;20056;-92
2022/08/25 14:44:20;;;;;;;5.35;1.65;;;23.40;74.60;;;;;;4844725;29;20023;-91
2022/08/25 14:46:56;;;;;;;4.57;1.63;;;23.40;73.50;;;;;;4829997;29;20063;-91
2022/08/25 14:49:32;;;;;;;7.05;1.42;;;23.20;73.20;;;;;;4815925;29;20038;-91
2022/08/25 14:52:06;;;;;;;4.97;1.10;;;23.00;73.60;;;;;;4830003;29;20026;-92
2022/08/25 14:54:32;;;;;;;5.13;1.48;;;22.70;73.70;;;;;;4829555;29;20040;-92
2022/08/25 14:56:57;;;;;;;4.40;1.20;;;22.50;74.50;;;;;;4829803;29;20577;-91
2022/08/25 14:59:25;;;;;;;6.10;1.20;;;22.40;75.30;;;;;;4829691;29;20026;-91
2022/08/25 15:01:52;;;;;;;3.10;1.20;;;22.30;76.00;;;;;;4828956;29;20054;-90
2022/08/25 15:04:26;;;;;;;6.93;1.30;;;22.30;76.40;;;;;;4845033;29;20030;-92
2022/08/25 15:06:56;;;;;;;4.63;1.20;;;22.30;76.10;;;;;;4844709;29;20034;-91
2022/08/25 15:10:11;;;;;;;6.95;2.28;;;22.20;76.50;;;;;;4845506;29;20033;-91
2022/08/25 15:12:36;;;;;;;10.60;3.30;;;22.20;76.90;;;;;;4845657;29;20037;-93
2022/08/25 15:15:02;;;;;;;3.78;1.58;;;22.20;77.20;;;;;;4844950;29;20107;-92
2022/08/25 15:17:31;;;;;;;5.25;1.27;;;22.10;77.50;;;;;;4844529;29;20033;-92
2022/08/25 15:19:57;;;;;;;3.75;1.35;;;21.90;77.80;;;;;;4844662;29;20109;-91
2022/08/25 15:22:28;;;;;;;3.65;1.23;;;21.80;78.00;;;;;;4844803;29;20510;-91
2022/08/25 15:24:54;;;;;;;9.30;1.83;;;21.90;78.40;;;;;;4844171;29;20076;-93
2022/08/25 15:27:20;;;;;;;7.97;1.55;;;21.80;78.40;;;;;;4843480;29;20057;-93
2022/08/25 15:29:46;;;;;;;4.60;1.45;;;21.70;78.40;;;;;;4844768;29;20049;-91
2022/08/25 15:32:12;;;;;;;6.68;1.55;;;21.70;78.00;;;;;;4843971;29;20041;-91
2022/08/25 15:34:38;;;;;;;8.93;1.58;;;21.80;77.80;;;;;;4844001;29;20034;-91
2022/08/25 15:37:10;;;;;;;5.68;1.50;;;22.20;77.50;;;;;;4844025;29;20042;-92
2022/08/25 15:39:37;;;;;;;5.75;1.70;;;22.60;76.30;;;;;;4846712;29;20124;-92
2022/08/25 15:42:03;;;;;;;4.32;1.27;;;23.00;75.00;;;;;;4844419;29;20479;-91
2022/08/25 15:44:32;;;;;;;8.20;1.40;;;23.40;73.40;;;;;;4844419;29;20030;-91
2022/08/25 15:46:58;;;;;;;5.82;1.23;;;23.70;71.70;;;;;;4843531;29;20079;-91
2022/08/25 15:49:24;;;;;;;6.75;1.45;;;23.90;70.60;;;;;;4843742;29;20451;-92
2022/08/25 15:51:54;;;;;;;4.55;1.10;;;24.00;69.20;;;;;;4843743;29;20058;-92
2022/08/25 15:54:21;;;;;;;6.75;1.30;;;23.90;68.70;;;;;;4843446;29;20160;-92
2022/08/25 15:56:47;;;;;;;6.65;1.20;;;23.70;68.70;;;;;;4843462;29;20054;-91
2022/08/25 15:59:13;;;;;;;5.35;1.40;;;23.50;68.50;;;;;;4844062;29;20117;-92
2022/08/25 16:01:40;;;;;;;5.38;1.27;;;23.30;68.40;;;;;;4843445;29;20050;-92
2022/08/25 16:04:06;;;;;;;4.25;1.10;;;23.30;68.30;;;;;;4828269;29;20108;-91